Archival Weather

Los Angeles Intl

Los Angeles, California (KLAX)

Report from: Thursday, September 21, 2023 2:53 AM PDT
Current time: Saturday, March 2, 2024 3:06 AM PST

Current weather – Weather history – Daily summaries
Weather forecast

Temperature18.9°C (66.0°F)
Dew point16.1°C (61.0°F)
Winds Calm
Visibility10 mi. (16.1 km)
Clouds Few clouds 1,200 ft. (366 m)
Scattered clouds 2,000 ft. (610 m)
Ceiling: Broken clouds 4,200 ft. (1,280 m)
Altimeter29.88 in.Hg (1012 mB)
Relative humidity84 %
Density altitude761 ft. (232 m)
Sea-level pressure101.2 kPa (1012 mB, 29.88 in.Hg)
Remarks Automated weather observing station with precipitation discriminator
Flight conditions Visual Meteorological Conditions
Raw dataKLAX 210953Z 00000KT 10SM FEW012 SCT020 BKN042 19/16 A2988 RMK AO2 SLP117 T01890161
An error has occurred. This application may no longer respond until reloaded. Reload 🗙